Time;durP1;ratioP1;P1;durP2;ratioP2;P2;SDS_P1;SDS_P2;PMS_P1;PMS_P2;Temp;Humidity;BMP_temperature;BMP_pressure;BME280_temperature;BME280_humidity;BME280_pressure;Samples;Min_cycle;Max_cycle;Signal;HPM_P1;HPM_P2
2022/12/03 00:00:39;;;;;;;46.87;27.93;;;1.00;1.00;;;;;;5080025;28;20552;-67
2022/12/03 00:03:06;;;;;;;47.83;27.90;;;1.00;1.00;;;;;;5080031;28;20500;-66
2022/12/03 00:05:34;;;;;;;45.00;28.23;;;1.00;1.00;;;;;;5078541;28;20537;-66
2022/12/03 00:08:01;;;;;;;48.23;27.03;;;1.00;1.00;;;;;;5079247;28;20538;-67
2022/12/03 00:10:28;;;;;;;49.77;27.73;;;1.00;1.00;;;;;;5079872;28;20517;-66
2022/12/03 00:12:55;;;;;;;48.57;26.83;;;1.00;1.00;;;;;;5079038;28;20545;-65
2022/12/03 00:15:22;;;;;;;47.03;27.80;;;1.00;1.00;;;;;;5077602;28;20540;-66
2022/12/03 00:17:48;;;;;;;41.40;26.47;;;1.00;1.00;;;;;;5077278;28;20549;-65
2022/12/03 00:20:19;;;;;;;44.63;27.13;;;1.00;1.00;;;;;;5077214;28;20557;-65
2022/12/03 00:22:47;;;;;;;46.83;27.43;;;1.00;1.00;;;;;;5077042;28;20482;-66
2022/12/03 00:25:14;;;;;;;47.90;26.57;;;1.00;1.00;;;;;;5077405;28;20558;-66
2022/12/03 00:27:41;;;;;;;43.47;26.00;;;1.00;1.00;;;;;;5077966;28;20508;-66
2022/12/03 00:30:09;;;;;;;49.80;27.57;;;1.00;1.00;;;;;;5081211;28;20648;-66
2022/12/03 00:32:36;;;;;;;49.37;28.40;;;1.10;1.00;;;;;;5082686;28;20482;-67
2022/12/03 00:35:04;;;;;;;49.40;28.27;;;1.10;1.00;;;;;;5083418;28;20458;-67
2022/12/03 00:37:30;;;;;;;57.37;28.33;;;1.00;1.00;;;;;;5083049;28;20568;-67
2022/12/03 00:39:58;;;;;;;57.60;29.93;;;1.10;1.00;;;;;;5082932;28;20853;-67
2022/12/03 00:42:25;;;;;;;48.87;29.30;;;1.10;1.00;;;;;;5082995;28;20521;-66
2022/12/03 00:44:53;;;;;;;44.47;28.03;;;1.10;1.00;;;;;;5082735;28;20493;-66
2022/12/03 00:47:19;;;;;;;49.33;27.23;;;1.10;1.00;;;;;;5082105;28;20454;-67
2022/12/03 00:49:46;;;;;;;47.67;28.90;;;1.10;1.00;;;;;;5082441;28;20853;-66
2022/12/03 00:52:13;;;;;;;47.50;28.63;;;1.10;1.00;;;;;;5082736;28;20492;-66
2022/12/03 00:54:40;;;;;;;49.67;29.60;;;1.10;1.00;;;;;;5083005;28;20884;-67
2022/12/03 00:57:10;;;;;;;50.97;29.97;;;1.10;1.00;;;;;;5082962;28;20962;-66
2022/12/03 00:59:37;;;;;;;52.83;29.30;;;1.10;1.00;;;;;;5081887;28;20453;-66
2022/12/03 01:02:04;;;;;;;44.43;27.00;;;1.10;1.00;;;;;;5081670;28;20482;-68
2022/12/03 01:04:32;;;;;;;53.10;29.73;;;1.10;1.00;;;;;;5081323;28;20525;-67
2022/12/03 01:06:59;;;;;;;52.27;29.70;;;1.10;1.00;;;;;;5081631;28;20446;-67
2022/12/03 01:09:26;;;;;;;49.23;29.80;;;1.00;1.00;;;;;;5081735;28;20489;-66
2022/12/03 01:11:53;;;;;;;49.80;29.00;;;1.00;1.00;;;;;;5081845;28;20497;-67
2022/12/03 01:14:21;;;;;;;51.13;28.20;;;0.90;1.00;;;;;;5081449;28;20537;-66
2022/12/03 01:16:49;;;;;;;54.57;30.00;;;1.00;1.00;;;;;;5082086;28;20990;-67
2022/12/03 01:19:16;;;;;;;48.83;29.10;;;0.90;1.00;;;;;;5081995;28;20493;-66
2022/12/03 01:21:44;;;;;;;51.63;28.37;;;1.00;1.00;;;;;;5082144;28;20474;-66
2022/12/03 01:24:12;;;;;;;46.50;27.27;;;1.00;1.00;;;;;;5082506;28;20494;-66
2022/12/03 01:26:39;;;;;;;52.50;30.60;;;1.00;1.00;;;;;;5081972;28;20454;-67
2022/12/03 01:29:06;;;;;;;60.67;28.83;;;1.00;1.00;;;;;;5081676;28;20541;-66
2022/12/03 01:34:30;;;;;;;56.20;29.73;;;1.00;1.00;;;;;;5019855;28;20453;-66
2022/12/03 01:36:57;;;;;;;55.40;28.80;;;0.90;1.00;;;;;;5066374;28;20514;-67
2022/12/03 01:39:24;;;;;;;50.37;28.27;;;0.80;1.00;;;;;;5080905;28;20482;-67
2022/12/03 01:41:52;;;;;;;50.30;28.80;;;0.80;1.00;;;;;;5081659;28;20981;-67
2022/12/03 01:44:23;;;;;;;54.50;29.37;;;0.80;1.00;;;;;;5081376;28;20494;-67
2022/12/03 01:46:52;;;;;;;51.10;28.30;;;0.80;1.00;;;;;;5081005;28;20465;-67
2022/12/03 01:49:23;;;;;;;50.37;29.10;;;0.80;1.00;;;;;;5080922;28;21002;-65
2022/12/03 01:51:51;;;;;;;57.67;31.17;;;0.80;1.00;;;;;;5081850;28;20466;-66
2022/12/03 01:54:21;;;;;;;47.80;28.57;;;0.80;1.00;;;;;;5081486;28;20497;-68
2022/12/03 01:56:48;;;;;;;50.33;29.33;;;0.80;1.00;;;;;;5081404;28;20565;-67
2022/12/03 01:59:16;;;;;;;53.10;29.20;;;0.80;1.00;;;;;;5080964;28;20485;-67
2022/12/03 02:01:43;;;;;;;51.87;28.83;;;0.80;1.00;;;;;;5081371;28;20902;-65
2022/12/03 02:04:15;;;;;;;49.27;27.47;;;0.80;1.00;;;;;;5081694;28;20517;-67
2022/12/03 02:06:42;;;;;;;46.17;27.30;;;0.80;1.00;;;;;;5082592;28;20479;-67
2022/12/03 02:09:11;;;;;;;52.37;28.30;;;0.80;1.00;;;;;;5081480;28;20537;-67
2022/12/03 02:11:39;;;;;;;49.70;28.00;;;0.80;1.00;;;;;;5081146;28;20541;-67
2022/12/03 02:14:08;;;;;;;48.50;26.97;;;0.80;1.00;;;;;;5081015;28;20526;-67
2022/12/03 02:16:36;;;;;;;52.40;28.80;;;0.80;1.00;;;;;;5080962;28;20478;-68
2022/12/03 02:19:07;;;;;;;53.00;30.57;;;0.80;1.00;;;;;;5081840;28;20550;-67
2022/12/03 02:21:42;;;;;;;51.50;28.20;;;0.80;1.00;;;;;;5081084;28;20867;-66
2022/12/03 02:24:15;;;;;;;44.50;27.17;;;0.70;1.00;;;;;;5081687;28;20484;-68
2022/12/03 02:26:43;;;;;;;44.17;25.33;;;0.70;1.00;;;;;;5081269;28;20470;-66
2022/12/03 02:29:10;;;;;;;48.33;27.47;;;0.70;1.00;;;;;;5081079;28;20478;-66
2022/12/03 02:31:37;;;;;;;46.37;28.40;;;0.70;1.00;;;;;;5080989;28;20857;-67
2022/12/03 02:34:06;;;;;;;50.93;27.53;;;0.70;1.00;;;;;;5081045;28;20536;-67
2022/12/03 02:36:33;;;;;;;50.10;26.70;;;0.80;1.00;;;;;;5080304;28;20490;-67
2022/12/03 02:39:01;;;;;;;45.77;25.93;;;0.80;1.00;;;;;;5081003;28;20521;-67
2022/12/03 02:44:13;;;;;;;48.67;27.40;;;0.80;1.00;;;;;;5080906;28;20764;-67
2022/12/03 02:46:40;;;;;;;46.80;27.40;;;0.80;1.00;;;;;;5081010;28;20561;-66
2022/12/03 02:49:07;;;;;;;55.60;29.20;;;0.80;1.00;;;;;;5081323;28;20518;-66
2022/12/03 02:51:35;;;;;;;48.77;28.37;;;0.80;1.00;;;;;;5080578;28;20549;-65
2022/12/03 02:54:03;;;;;;;42.10;24.87;;;0.70;1.00;;;;;;5080749;28;20489;-67
2022/12/03 02:56:31;;;;;;;52.70;27.20;;;0.70;1.00;;;;;;5080413;28;20561;-67
2022/12/03 02:59:01;;;;;;;50.33;27.67;;;0.80;1.00;;;;;;5080591;28;20545;-68
2022/12/03 03:01:30;;;;;;;44.37;26.83;;;0.80;1.00;;;;;;5080072;28;20918;-66
2022/12/03 03:03:57;;;;;;;48.90;26.70;;;0.80;1.00;;;;;;5079497;28;20526;-66
2022/12/03 03:06:24;;;;;;;52.07;28.53;;;0.70;1.00;;;;;;5078678;28;20464;-66
2022/12/03 03:08:52;;;;;;;48.67;27.03;;;0.80;1.00;;;;;;5079985;28;20839;-66
2022/12/03 03:11:19;;;;;;;50.73;27.63;;;0.80;1.00;;;;;;5079626;28;20780;-67
2022/12/03 03:13:46;;;;;;;54.73;28.37;;;0.80;1.00;;;;;;5078935;28;20465;-67
2022/12/03 03:16:13;;;;;;;53.03;29.63;;;0.80;1.00;;;;;;5079074;28;20461;-66
2022/12/03 03:18:42;;;;;;;53.87;28.50;;;0.80;1.00;;;;;;5080032;28;20485;-65
2022/12/03 03:21:08;;;;;;;51.40;28.33;;;0.80;1.00;;;;;;5079150;28;21028;-67
2022/12/03 03:23:35;;;;;;;56.57;28.20;;;0.80;1.00;;;;;;5080380;28;20517;-66
2022/12/03 03:26:04;;;;;;;51.17;28.57;;;0.80;1.00;;;;;;5079578;28;20464;-69
2022/12/03 03:28:32;;;;;;;56.50;30.63;;;0.90;1.00;;;;;;5080076;28;20446;-67
2022/12/03 03:31:01;;;;;;;52.40;29.33;;;0.90;1.00;;;;;;5080003;28;20540;-67
2022/12/03 03:33:28;;;;;;;51.00;26.83;;;0.80;1.00;;;;;;5079776;28;20474;-66
2022/12/03 03:35:59;;;;;;;51.00;28.90;;;0.80;1.00;;;;;;5079475;28;20495;-66
2022/12/03 03:38:28;;;;;;;49.93;28.50;;;0.80;1.00;;;;;;5079959;28;20844;-67
2022/12/03 03:40:56;;;;;;;54.90;30.70;;;0.80;1.00;;;;;;5079901;28;20596;-66
2022/12/03 03:43:24;;;;;;;51.63;29.40;;;0.80;1.00;;;;;;5079241;28;20837;-67
2022/12/03 03:45:52;;;;;;;48.57;27.57;;;0.90;1.00;;;;;;5079213;28;20526;-66
2022/12/03 03:48:20;;;;;;;54.50;28.30;;;0.90;1.00;;;;;;5078970;28;20849;-67
2022/12/03 03:50:47;;;;;;;50.80;29.80;;;0.90;1.00;;;;;;5078228;28;20612;-66
2022/12/03 03:53:16;;;;;;;51.67;28.57;;;0.90;1.00;;;;;;5077796;28;20537;-66
2022/12/03 03:55:43;;;;;;;48.10;27.57;;;0.90;1.00;;;;;;5078253;28;20546;-66
2022/12/03 03:58:10;;;;;;;49.23;29.27;;;0.80;1.00;;;;;;5078253;28;20572;-67
2022/12/03 04:00:37;;;;;;;50.13;28.30;;;0.80;1.00;;;;;;5078587;28;20458;-67
2022/12/03 04:03:04;;;;;;;50.13;29.83;;;0.80;1.00;;;;;;5078841;28;20493;-67
2022/12/03 04:05:31;;;;;;;53.60;29.47;;;0.80;1.00;;;;;;5079040;28;20482;-67
2022/12/03 04:07:58;;;;;;;53.90;28.77;;;0.90;1.00;;;;;;5078942;28;20853;-67
2022/12/03 04:13:07;;;;;;;50.20;28.33;;;0.90;1.00;;;;;;5045926;28;20465;-65
2022/12/03 04:15:34;;;;;;;53.17;28.40;;;0.80;1.00;;;;;;5079278;28;20489;-66
2022/12/03 04:20:45;;;;;;;53.30;31.03;;;0.80;1.00;;;;;;5079471;28;20421;-66
2022/12/03 04:23:11;;;;;;;49.27;27.30;;;0.80;1.00;;;;;;5080375;28;20450;-66
2022/12/03 04:36:33;;;;;;;47.97;29.73;;;0.80;1.00;;;;;;5079280;28;20473;-66
2022/12/03 04:39:00;;;;;;;50.33;28.07;;;0.90;1.00;;;;;;5079439;28;20482;-67
2022/12/03 04:41:28;;;;;;;51.20;28.93;;;0.90;1.00;;;;;;5079698;28;20486;-66
2022/12/03 04:46:40;;;;;;;51.50;30.73;;;0.90;1.00;;;;;;5079616;28;20422;-67
2022/12/03 04:49:06;;;;;;;56.53;28.67;;;0.90;1.00;;;;;;5079454;28;20521;-67
2022/12/03 04:51:33;;;;;;;49.37;27.73;;;0.90;1.00;;;;;;5079196;28;20508;-67
2022/12/03 04:54:00;;;;;;;48.33;27.90;;;0.90;1.00;;;;;;5079199;28;20454;-67
2022/12/03 04:56:28;;;;;;;48.90;27.50;;;0.90;1.00;;;;;;5079088;28;20882;-66
2022/12/03 04:58:55;;;;;;;54.23;29.30;;;0.90;1.00;;;;;;5079183;28;20510;-67
2022/12/03 05:01:22;;;;;;;49.67;29.60;;;0.90;1.00;;;;;;5079847;28;20496;-66
2022/12/03 05:03:49;;;;;;;46.87;26.23;;;0.90;1.00;;;;;;5078615;28;20541;-66
2022/12/03 05:06:16;;;;;;;51.87;28.53;;;0.90;1.00;;;;;;5078776;28;20494;-67
2022/12/03 05:08:43;;;;;;;47.27;27.77;;;0.80;1.00;;;;;;5078483;28;20950;-67
2022/12/03 05:11:10;;;;;;;56.37;29.40;;;0.80;1.00;;;;;;5079298;28;20497;-67
2022/12/03 05:13:38;;;;;;;55.60;30.27;;;0.80;1.00;;;;;;5078735;28;20477;-67
2022/12/03 05:16:05;;;;;;;54.70;30.00;;;0.90;1.00;;;;;;5081432;28;20501;-66
2022/12/03 05:18:32;;;;;;;50.57;28.37;;;0.90;1.00;;;;;;5082212;28;20517;-66
2022/12/03 05:20:59;;;;;;;50.00;29.30;;;0.80;1.00;;;;;;5081986;28;21005;-67
2022/12/03 05:23:26;;;;;;;54.17;29.60;;;0.80;1.00;;;;;;5082204;28;20549;-66
2022/12/03 05:25:52;;;;;;;54.07;30.07;;;0.80;1.00;;;;;;5082638;28;20966;-66
2022/12/03 05:28:21;;;;;;;54.00;29.20;;;0.80;1.00;;;;;;5082443;28;20461;-67
2022/12/03 05:30:49;;;;;;;50.70;30.60;;;0.90;1.00;;;;;;5083750;28;20458;-67
2022/12/03 05:33:16;;;;;;;60.57;32.07;;;0.90;1.00;;;;;;5083217;28;20554;-66
2022/12/03 05:35:43;;;;;;;54.17;29.47;;;0.90;1.00;;;;;;5082109;28;20508;-67
2022/12/03 05:38:09;;;;;;;49.80;28.97;;;0.90;1.00;;;;;;5083003;28;20506;-66
2022/12/03 05:40:36;;;;;;;53.70;31.83;;;0.80;1.00;;;;;;5083674;28;20537;-66
2022/12/03 05:43:02;;;;;;;49.70;27.83;;;0.80;1.00;;;;;;5082428;28;20839;-66
2022/12/03 05:45:31;;;;;;;58.90;30.67;;;0.80;1.00;;;;;;5082226;28;20450;-66
2022/12/03 05:48:00;;;;;;;52.30;31.23;;;0.80;1.00;;;;;;5083084;28;20497;-67
2022/12/03 05:50:29;;;;;;;54.33;30.03;;;0.80;1.00;;;;;;5082020;28;20569;-66
2022/12/03 05:52:56;;;;;;;56.50;30.27;;;0.80;1.00;;;;;;5081643;28;20501;-65
2022/12/03 05:55:23;;;;;;;53.53;29.27;;;0.80;1.00;;;;;;5081931;28;20486;-66
2022/12/03 05:57:50;;;;;;;52.07;29.50;;;0.80;99.90;;;;;;5081477;28;20474;-66
2022/12/03 06:00:20;;;;;;;55.77;29.27;;;0.70;99.90;;;;;;5081833;28;20481;-66
2022/12/03 06:02:46;;;;;;;62.40;33.40;;;0.60;99.90;;;;;;5082101;28;20781;-66
2022/12/03 06:05:15;;;;;;;58.50;30.97;;;0.60;1.00;;;;;;5081136;28;20493;-67
2022/12/03 06:07:43;;;;;;;58.60;32.77;;;0.60;1.00;;;;;;5080804;28;20447;-67
2022/12/03 06:10:12;;;;;;;54.57;31.17;;;0.50;99.90;;;;;;5081096;28;20501;-67
2022/12/03 06:12:39;;;;;;;61.80;31.77;;;0.60;99.90;;;;;;5081679;28;20515;-66
2022/12/03 06:15:07;;;;;;;53.37;29.23;;;0.50;1.00;;;;;;5081012;28;20458;-67
2022/12/03 06:17:34;;;;;;;53.53;29.13;;;0.50;1.00;;;;;;5081278;28;20506;-67
2022/12/03 06:20:01;;;;;;;59.33;30.73;;;0.50;1.00;;;;;;5080412;28;20489;-67
2022/12/03 06:22:29;;;;;;;56.37;31.50;;;0.50;1.00;;;;;;5081017;28;20636;-67
2022/12/03 06:24:56;;;;;;;56.97;30.50;;;0.50;95.90;;;;;;5080097;28;20499;-67
2022/12/03 06:27:23;;;;;;;59.17;31.10;;;0.50;99.90;;;;;;5079099;28;20482;-67
2022/12/03 06:29:50;;;;;;;53.70;29.63;;;0.50;83.70;;;;;;5079875;28;20953;-66
2022/12/03 06:32:17;;;;;;;64.40;29.83;;;0.40;99.90;;;;;;5080488;28;20538;-67
2022/12/03 06:34:43;;;;;;;57.00;31.57;;;0.40;99.90;;;;;;5080288;28;20521;-67
2022/12/03 06:37:10;;;;;;;54.63;31.73;;;0.40;1.00;;;;;;5080933;28;20514;-67
2022/12/03 06:39:38;;;;;;;53.70;30.47;;;0.50;1.00;;;;;;5081616;28;20486;-66
2022/12/03 06:42:06;;;;;;;57.70;31.57;;;0.50;1.00;;;;;;5081302;28;20854;-67
2022/12/03 06:44:32;;;;;;;61.37;31.10;;;0.50;1.00;;;;;;5080407;28;20541;-66
2022/12/03 06:46:59;;;;;;;58.20;31.10;;;0.50;99.90;;;;;;5080540;28;20494;-66
2022/12/03 06:49:26;;;;;;;52.97;29.33;;;0.50;99.90;;;;;;5080818;28;20514;-67
2022/12/03 06:51:53;;;;;;;57.47;31.10;;;0.50;99.90;;;;;;5080430;28;20450;-66
2022/12/03 06:54:20;;;;;;;62.47;31.30;;;0.50;1.00;;;;;;5080593;28;20537;-66
2022/12/03 06:56:48;;;;;;;60.10;30.77;;;0.50;1.00;;;;;;5080529;28;20496;-66
2022/12/03 06:59:15;;;;;;;62.90;32.60;;;0.50;99.90;;;;;;5079129;28;20577;-66
2022/12/03 07:01:42;;;;;;;52.87;30.47;;;0.50;99.90;;;;;;5079275;28;20553;-66
2022/12/03 07:04:08;;;;;;;58.10;31.40;;;0.50;99.90;;;;;;5078967;28;20530;-66
2022/12/03 07:06:35;;;;;;;59.00;30.73;;;0.60;1.00;;;;;;5079679;28;20484;-65
2022/12/03 07:09:02;;;;;;;62.60;31.80;;;0.50;99.90;;;;;;5079760;28;20497;-66
2022/12/03 07:11:32;;;;;;;53.20;29.27;;;0.50;99.90;;;;;;5080530;28;20547;-68
2022/12/03 07:14:02;;;;;;;56.73;30.33;;;0.50;99.90;;;;;;5081859;28;20455;-66
2022/12/03 07:16:28;;;;;;;55.67;30.90;;;0.50;1.00;;;;;;5079773;28;21022;-67
2022/12/03 07:18:56;;;;;;;64.93;31.47;;;0.50;1.00;;;;;;5079974;28;20953;-67
2022/12/03 07:21:22;;;;;;;59.57;31.73;;;0.50;1.00;;;;;;5080338;28;20537;-67
2022/12/03 07:23:49;;;;;;;59.30;30.43;;;0.50;1.00;;;;;;5080133;28;20497;-67
2022/12/03 07:26:16;;;;;;;56.37;31.10;;;0.50;35.40;;;;;;5080154;28;20714;-67
2022/12/03 07:28:43;;;;;;;55.27;32.97;;;0.50;20.30;;;;;;5079900;28;20954;-67
2022/12/03 07:31:11;;;;;;;57.37;29.50;;;0.50;1.00;;;;;;5079797;28;20541;-68
2022/12/03 07:33:38;;;;;;;57.80;32.23;;;0.50;1.00;;;;;;5079288;28;20544;-67
2022/12/03 07:36:05;;;;;;;54.50;30.17;;;0.40;1.00;;;;;;5079222;28;20516;-66
2022/12/03 07:38:32;;;;;;;56.87;31.87;;;0.50;99.90;;;;;;5078999;28;20607;-67
2022/12/03 07:40:59;;;;;;;58.37;31.50;;;0.50;99.90;;;;;;5079167;28;20828;-67
2022/12/03 07:43:26;;;;;;;55.77;29.77;;;0.50;99.90;;;;;;5079905;28;20537;-67
2022/12/03 07:45:53;;;;;;;62.57;31.70;;;0.50;1.00;;;;;;5079874;28;20584;-67
2022/12/03 07:48:21;;;;;;;61.70;32.63;;;0.50;99.90;;;;;;5079452;28;20545;-66
2022/12/03 07:50:48;;;;;;;58.97;30.97;;;0.50;1.00;;;;;;5078094;28;20459;-66
2022/12/03 07:53:14;;;;;;;60.83;32.30;;;0.40;30.60;;;;;;5077737;28;20465;-66
2022/12/03 07:55:41;;;;;;;55.73;31.17;;;0.50;75.80;;;;;;5078669;28;20789;-67
2022/12/03 07:58:08;;;;;;;54.53;28.60;;;0.50;99.90;;;;;;5079441;28;20577;-66
2022/12/03 08:00:35;;;;;;;55.03;31.60;;;0.50;99.90;;;;;;5078863;28;20465;-66
2022/12/03 08:03:02;;;;;;;57.27;30.67;;;0.40;99.90;;;;;;5079127;28;20526;-66
2022/12/03 08:05:30;;;;;;;59.13;30.03;;;0.50;1.00;;;;;;5079544;28;20525;-66
2022/12/03 08:07:57;;;;;;;58.00;30.07;;;0.40;99.90;;;;;;5079610;28;20493;-66
2022/12/03 08:10:26;;;;;;;66.23;31.90;;;0.40;1.00;;;;;;5079221;28;20509;-66
2022/12/03 08:12:52;;;;;;;52.93;29.90;;;0.40;1.00;;;;;;5079145;28;20454;-66
2022/12/03 08:15:22;;;;;;;54.50;29.47;;;0.50;28.90;;;;;;5078977;28;20493;-67
2022/12/03 08:17:54;;;;;;;57.23;30.30;;;0.50;77.70;;;;;;5078936;28;20488;-66
2022/12/03 08:20:22;;;;;;;52.07;30.27;;;0.50;2.00;;;;;;5078452;28;20526;-68
2022/12/03 08:22:53;;;;;;;60.90;30.70;;;0.60;99.90;;;;;;5078867;28;20790;-66
2022/12/03 08:25:22;;;;;;;56.57;29.47;;;0.60;1.00;;;;;;5079882;28;20728;-66
2022/12/03 08:27:49;;;;;;;60.57;31.87;;;0.60;1.00;;;;;;5079172;28;20923;-66
2022/12/03 08:30:17;;;;;;;62.80;32.83;;;0.60;1.00;;;;;;5079650;28;20545;-66
2022/12/03 08:32:44;;;;;;;58.03;31.53;;;0.60;1.00;;;;;;5078938;28;20545;-67
2022/12/03 08:35:14;;;;;;;59.37;33.03;;;0.60;1.00;;;;;;5079572;28;20818;-66
2022/12/03 08:37:41;;;;;;;55.30;31.40;;;0.60;99.90;;;;;;5078528;28;20565;-67
2022/12/03 08:40:23;;;;;;;60.40;30.67;;;0.60;1.00;;;;;;5078685;28;20527;-66
2022/12/03 08:42:49;;;;;;;57.97;31.60;;;0.60;1.00;;;;;;5078502;28;20493;-67
2022/12/03 08:45:43;;;;;;;57.07;31.40;;;0.50;99.90;;;;;;5078127;28;20476;-67
2022/12/03 08:48:28;;;;;;;54.67;31.20;;;0.60;1.00;;;;;;5078423;28;20515;-68
2022/12/03 08:50:56;;;;;;;56.47;31.57;;;0.60;1.00;;;;;;5081039;28;20530;-69
2022/12/03 08:53:28;;;;;;;56.33;31.07;;;0.60;1.00;;;;;;5081880;28;20974;-66
2022/12/03 08:55:58;;;;;;;61.13;30.90;;;0.60;1.00;;;;;;5082275;28;20526;-68
2022/12/03 08:58:33;;;;;;;58.63;32.17;;;0.60;1.00;;;;;;5082618;28;20553;-66
2022/12/03 09:01:15;;;;;;;58.37;31.33;;;0.70;1.00;;;;;;5082385;28;20461;-67
2022/12/03 09:03:49;;;;;;;59.37;31.20;;;0.70;1.00;;;;;;5082587;28;20484;-67
2022/12/03 09:06:16;;;;;;;61.23;30.60;;;0.80;1.00;;;;;;5080824;28;20920;-66
2022/12/03 09:08:43;;;;;;;53.70;31.20;;;0.80;1.00;;;;;;5081093;28;20977;-67
2022/12/03 09:11:11;;;;;;;67.53;34.30;;;0.90;1.00;;;;;;5081854;28;20910;-67
2022/12/03 09:13:38;;;;;;;53.27;28.50;;;0.90;1.00;;;;;;5081323;28;20464;-67
2022/12/03 09:16:05;;;;;;;46.63;28.07;;;0.90;99.90;;;;;;5081301;28;20516;-66
2022/12/03 09:18:33;;;;;;;61.77;30.77;;;0.90;99.90;;;;;;5080786;28;20573;-66
2022/12/03 09:21:00;;;;;;;57.80;29.97;;;0.90;99.90;;;;;;5081254;28;20522;-68
2022/12/03 09:23:27;;;;;;;52.70;28.27;;;0.90;99.90;;;;;;5079808;28;20462;-67
2022/12/03 09:25:54;;;;;;;60.23;31.37;;;0.90;99.90;;;;;;5080716;28;20494;-67
2022/12/03 09:28:22;;;;;;;59.17;28.40;;;1.00;99.90;;;;;;5081749;28;20538;-67
2022/12/03 09:30:49;;;;;;;52.60;31.70;;;1.00;99.90;;;;;;5081419;28;20461;-66
2022/12/03 09:33:16;;;;;;;51.77;28.50;;;1.00;99.90;;;;;;5082035;28;20569;-66
2022/12/03 09:35:42;;;;;;;54.67;31.37;;;1.00;99.90;;;;;;5081067;28;20540;-67
2022/12/03 09:38:09;;;;;;;60.37;33.03;;;1.00;67.20;;;;;;5081028;28;20943;-66
2022/12/03 09:40:36;;;;;;;52.33;29.07;;;1.10;86.70;;;;;;5081359;28;20486;-67
2022/12/03 09:43:03;;;;;;;55.60;30.37;;;1.10;1.00;;;;;;5080636;28;20984;-68
2022/12/03 09:45:31;;;;;;;70.37;31.47;;;1.10;99.90;;;;;;5080840;28;20490;-67
2022/12/03 09:48:01;;;;;;;52.30;30.00;;;1.20;99.90;;;;;;5081732;28;20854;-67
2022/12/03 09:50:28;;;;;;;61.57;31.80;;;1.20;1.00;;;;;;5080913;28;20532;-67
2022/12/03 09:52:58;;;;;;;60.43;31.60;;;1.30;99.90;;;;;;5080643;28;20855;-66
2022/12/03 09:55:27;;;;;;;55.50;31.70;;;1.30;1.00;;;;;;5080107;28;20550;-66
2022/12/03 09:57:55;;;;;;;58.03;31.93;;;1.30;1.00;;;;;;5080733;28;20455;-67
2022/12/03 10:00:24;;;;;;;56.57;30.70;;;1.30;1.00;;;;;;5080971;28;20837;-66
2022/12/03 10:02:55;;;;;;;59.47;31.60;;;1.30;1.00;;;;;;5081469;28;20458;-66
2022/12/03 10:05:23;;;;;;;55.70;29.80;;;1.30;1.00;;;;;;5082066;28;20545;-67
2022/12/03 10:07:51;;;;;;;55.50;31.20;;;1.40;1.00;;;;;;5080928;28;20458;-65
2022/12/03 10:10:22;;;;;;;53.10;29.97;;;1.40;1.00;;;;;;5081651;28;20785;-66
2022/12/03 10:12:50;;;;;;;53.57;29.43;;;1.40;1.00;;;;;;5080565;28;20466;-67
2022/12/03 10:15:19;;;;;;;61.93;30.07;;;1.40;1.00;;;;;;5080320;28;20549;-67
2022/12/03 10:17:49;;;;;;;59.77;31.43;;;1.40;1.00;;;;;;5080516;28;20482;-67
2022/12/03 10:20:19;;;;;;;56.30;30.53;;;1.30;1.00;;;;;;5080262;28;20488;-67
2022/12/03 10:22:47;;;;;;;56.53;29.63;;;1.30;1.00;;;;;;5080907;28;20447;-66
2022/12/03 10:25:16;;;;;;;60.63;30.37;;;1.30;1.00;;;;;;5080715;28;20484;-66
2022/12/03 10:27:54;;;;;;;58.27;30.60;;;1.30;1.00;;;;;;5080900;28;20494;-67
2022/12/03 10:30:22;;;;;;;61.83;29.77;;;1.30;1.00;;;;;;5081391;28;20465;-67
2022/12/03 10:32:50;;;;;;;58.50;29.60;;;1.30;1.00;;;;;;5081332;28;20454;-66
2022/12/03 10:35:21;;;;;;;65.83;33.00;;;1.30;1.00;;;;;;5081095;28;20454;-66
2022/12/03 10:37:59;;;;;;;55.20;31.00;;;1.40;1.00;;;;;;5080841;28;20493;-67
2022/12/03 10:40:28;;;;;;;63.33;32.40;;;1.40;1.00;;;;;;5080920;28;20513;-67
2022/12/03 10:43:13;;;;;;;57.90;30.60;;;1.40;1.00;;;;;;5081365;28;20484;-67
2022/12/03 10:45:40;;;;;;;59.67;30.10;;;1.40;99.90;;;;;;5081860;28;20534;-67
2022/12/03 10:48:12;;;;;;;53.77;28.17;;;1.30;99.90;;;;;;5082004;28;20497;-67
2022/12/03 10:50:51;;;;;;;55.40;28.90;;;1.30;99.90;;;;;;5081260;28;20447;-68
2022/12/03 10:53:19;;;;;;;53.33;29.93;;;1.30;99.90;;;;;;5081533;28;20498;-67
2022/12/03 10:55:48;;;;;;;56.90;29.80;;;1.30;99.90;;;;;;5081592;28;20490;-69
2022/12/03 10:58:23;;;;;;;58.57;28.80;;;1.30;1.00;;;;;;5080933;28;20514;-67
2022/12/03 11:00:51;;;;;;;59.80;29.70;;;1.30;1.00;;;;;;5080913;28;20478;-65
2022/12/03 11:03:20;;;;;;;58.57;30.70;;;1.30;1.00;;;;;;5080921;28;20478;-67
2022/12/03 11:05:48;;;;;;;61.93;29.00;;;1.40;99.90;;;;;;5080441;28;20497;-68
2022/12/03 11:08:20;;;;;;;49.90;26.93;;;1.30;1.00;;;;;;5080464;28;20537;-67
2022/12/03 11:10:57;;;;;;;57.77;27.20;;;1.40;1.00;;;;;;5079921;28;20439;-66
2022/12/03 11:13:46;;;;;;;60.23;28.80;;;1.40;99.90;;;;;;5080340;28;20442;-67
2022/12/03 11:16:14;;;;;;;60.60;28.87;;;1.40;1.00;;;;;;5080798;28;20438;-67
2022/12/03 11:19:01;;;;;;;57.23;29.73;;;1.40;1.00;;;;;;5080483;28;20807;-66
2022/12/03 11:21:30;;;;;;;54.20;26.30;;;1.40;1.00;;;;;;5080336;28;20501;-67
2022/12/03 11:24:19;;;;;;;56.60;29.13;;;1.40;1.00;;;;;;5080424;28;20850;-67
2022/12/03 11:27:16;;;;;;;52.40;27.13;;;1.40;1.00;;;;;;5080354;28;20522;-67
2022/12/03 11:29:55;;;;;;;48.50;26.03;;;1.40;1.00;;;;;;5080537;28;20434;-67
2022/12/03 11:33:07;;;;;;;53.93;27.63;;;1.50;99.90;;;;;;5080439;28;20787;-67
2022/12/03 11:36:02;;;;;;;49.67;26.63;;;1.50;1.00;;;;;;5080755;28;20462;-66
2022/12/03 11:38:57;;;;;;;64.27;28.37;;;1.50;99.90;;;;;;5079860;28;20486;-67
2022/12/03 11:41:33;;;;;;;54.93;30.03;;;1.50;99.90;;;;;;5079766;28;20537;-67
2022/12/03 11:44:27;;;;;;;58.83;26.37;;;1.50;99.90;;;;;;5079691;28;20462;-66
2022/12/03 11:46:54;;;;;;;51.53;26.07;;;1.40;99.90;;;;;;5079861;28;20521;-67
2022/12/03 11:49:31;;;;;;;57.90;28.20;;;1.50;99.90;;;;;;5079737;28;20485;-67
2022/12/03 11:52:00;;;;;;;61.50;27.90;;;1.50;99.90;;;;;;5080672;28;20506;-67
2022/12/03 11:54:33;;;;;;;63.90;28.27;;;1.50;99.90;;;;;;5078145;28;20488;-67
2022/12/03 11:57:00;;;;;;;55.67;28.20;;;1.50;99.90;;;;;;5079237;28;20473;-68
2022/12/03 11:59:27;;;;;;;54.43;29.30;;;1.50;99.90;;;;;;5079186;28;20525;-67
2022/12/03 12:01:54;;;;;;;50.37;26.03;;;1.50;46.20;;;;;;5079830;28;20461;-66
2022/12/03 12:04:30;;;;;;;56.07;27.27;;;1.50;54.90;;;;;;5080168;28;20477;-67
2022/12/03 12:06:57;;;;;;;59.13;28.53;;;1.50;99.90;;;;;;5079493;28;20485;-67
2022/12/03 12:09:51;;;;;;;52.47;27.10;;;1.50;99.90;;;;;;5079586;28;20474;-67
2022/12/03 12:12:28;;;;;;;58.67;29.37;;;1.50;99.90;;;;;;5079231;28;20837;-67
2022/12/03 12:14:55;;;;;;;56.43;28.47;;;1.50;99.90;;;;;;5079226;28;20958;-67
2022/12/03 12:17:33;;;;;;;54.77;28.40;;;1.50;99.90;;;;;;5078980;28;20486;-68
2022/12/03 12:20:24;;;;;;;53.87;27.90;;;1.60;99.90;;;;;;5078665;28;20520;-68
2022/12/03 12:22:52;;;;;;;56.07;28.70;;;1.60;99.90;;;;;;5078663;28;20438;-67
2022/12/03 12:25:38;;;;;;;57.60;28.00;;;1.60;99.90;;;;;;5080917;28;20518;-67
2022/12/03 12:28:06;;;;;;;59.80;27.90;;;1.60;99.90;;;;;;5083243;28;20438;-67
2022/12/03 12:30:33;;;;;;;60.63;29.70;;;1.60;99.90;;;;;;5082933;28;20935;-67
2022/12/03 12:33:11;;;;;;;52.93;29.50;;;1.60;99.90;;;;;;5082814;28;20537;-67
2022/12/03 12:35:38;;;;;;;59.00;28.30;;;1.60;99.90;;;;;;5082991;28;20438;-67
2022/12/03 12:38:14;;;;;;;58.10;27.10;;;1.60;99.90;;;;;;5083665;28;20502;-67
2022/12/03 12:40:45;;;;;;;57.23;27.83;;;1.60;54.50;;;;;;5083048;28;20537;-67
2022/12/03 12:43:24;;;;;;;61.40;27.33;;;1.60;99.90;;;;;;5083049;28;20533;-67
2022/12/03 12:45:53;;;;;;;57.00;28.40;;;1.60;99.90;;;;;;5097067;28;20512;-67
2022/12/03 12:48:24;;;;;;;55.77;26.67;;;1.60;99.90;;;;;;5102020;28;20496;-67
2022/12/03 12:50:58;;;;;;;53.73;27.60;;;1.70;99.90;;;;;;5103566;28;20525;-67
2022/12/03 12:53:26;;;;;;;52.47;27.00;;;1.70;99.90;;;;;;5103303;28;20452;-68
2022/12/03 12:55:57;;;;;;;64.13;29.80;;;1.70;99.90;;;;;;5102036;28;20956;-67
2022/12/03 12:58:25;;;;;;;50.47;29.10;;;1.70;99.90;;;;;;5102564;28;20945;-66
2022/12/03 13:00:53;;;;;;;56.13;27.10;;;1.70;99.90;;;;;;5101829;28;20572;-67
2022/12/03 13:03:23;;;;;;;57.17;27.77;;;1.70;68.40;;;;;;5103012;28;20551;-67
2022/12/03 13:05:51;;;;;;;54.87;27.83;;;1.70;48.40;;;;;;5102651;28;20549;-67
2022/12/03 13:08:25;;;;;;;51.50;27.13;;;1.70;43.50;;;;;;5102123;28;20516;-68
2022/12/03 13:10:53;;;;;;;53.83;26.83;;;1.60;39.80;;;;;;5101876;28;20461;-67
2022/12/03 13:13:28;;;;;;;56.77;28.07;;;1.60;93.70;;;;;;5101295;28;20510;-66
2022/12/03 13:16:06;;;;;;;55.63;26.67;;;1.50;99.90;;;;;;5101465;28;20764;-66
2022/12/03 13:18:42;;;;;;;53.73;29.00;;;1.50;99.90;;;;;;5102166;28;20460;-66